Terminal Aerodrome Forecast
Issued by NWS

Home | Current Version | Previous Version | Text Only | Print | Product List | Glossary On
Versions: 1 2 3 4 5 6 7 8 9 10 11 12 13 14 15 16 17 18 19 20
393
FTUS43 KSGF 241120
TAFBBG
TAF
KBBG 241120Z 2412/2512 18008KT P6SM FEW040 WS020/20040KT
     FM241400 17020G28KT P6SM VCTS BKN200CB
     FM241800 17018KT P6SM SHRA OVC045
      TEMPO 2418/2421 4SM TS OVC025CB
     FM242100 16013G21KT 5SM -SHRA VCTS OVC025CB
     FM250100 16009KT 4SM -SHRA VCTS OVC015CB
     FM250500 16007KT 6SM -SHRA VCTS BKN070CB
     FM250600 18006KT P6SM BKN070
     FM250900 20006KT P6SM BKN040=

USA.gov is the U.S. government's official web portal to all federal, state and local government web resources and services.